createdAt,value
2022-09-16T00:00:35.003Z,99774.69
2022-09-16T00:03:02.200Z,99775.44
2022-09-16T00:05:29.534Z,99774.81
2022-09-16T00:07:56.446Z,99775.81
2022-09-16T00:10:23.679Z,99774.72
2022-09-16T00:12:51.022Z,99778.34
2022-09-16T00:15:18.296Z,99776.84
2022-09-16T00:17:45.220Z,99773.25
2022-09-16T00:20:12.494Z,99781.00
2022-09-16T00:22:39.458Z,99775.78
2022-09-16T00:25:06.841Z,99779.28
2022-09-16T00:27:33.847Z,99779.28
2022-09-16T00:30:00.956Z,99776.72
2022-09-16T00:32:27.985Z,99777.44
2022-09-16T00:34:54.958Z,99783.50
2022-09-16T00:37:21.955Z,99775.69
2022-09-16T00:39:49.694Z,99784.97
2022-09-16T00:42:18.175Z,99776.84
2022-09-16T00:44:51.188Z,99773.25
2022-09-16T00:47:34.997Z,99778.56
2022-09-16T00:50:17.264Z,99772.97
2022-09-16T00:52:44.578Z,99774.22
2022-09-16T00:55:15.702Z,99774.72
2022-09-16T00:57:44.692Z,99777.91
2022-09-16T01:00:13.960Z,99771.28
2022-09-16T01:02:44.893Z,99775.69
2022-09-16T01:05:18.763Z,99767.75
2022-09-16T01:07:48.670Z,99772.47
2022-09-16T01:10:21.350Z,99768.84
2022-09-16T01:12:57.359Z,99764.19
2022-09-16T01:15:30.568Z,99770.03
2022-09-16T01:17:57.453Z,99759.28
2022-09-16T01:20:49.814Z,99762.69
2022-09-16T01:23:38.220Z,99766.50
2022-09-16T01:26:32.567Z,99770.84
2022-09-16T01:29:27.287Z,99767.78
2022-09-16T01:32:11.294Z,99767.34
2022-09-16T01:34:58.715Z,99769.69
2022-09-16T01:37:55.482Z,99757.44
2022-09-16T01:40:42.094Z,99752.41
2022-09-16T01:43:17.993Z,99747.28
2022-09-16T01:45:59.076Z,99760.03
2022-09-16T01:48:27.679Z,99759.25
2022-09-16T01:51:13.105Z,99754.06
2022-09-16T01:54:08.710Z,99755.69
2022-09-16T01:56:55.715Z,99753.38
2022-09-16T01:59:31.598Z,99754.06
2022-09-16T02:02:06.560Z,99746.66
2022-09-16T02:04:42.860Z,99752.63
2022-09-16T02:07:13.113Z,99755.78
2022-09-16T02:09:45.073Z,99752.81
2022-09-16T02:12:18.593Z,99754.38
2022-09-16T02:14:48.313Z,99761.34
2022-09-16T02:17:20.347Z,99759.50
2022-09-16T02:20:09.034Z,99752.63
2022-09-16T02:22:47.146Z,99755.06
2022-09-16T02:25:18.366Z,99755.25
2022-09-16T02:27:49.368Z,99758.78
2022-09-16T02:30:19.623Z,99751.78
2022-09-16T02:32:50.614Z,99748.09
2022-09-16T02:35:19.411Z,99757.03
2022-09-16T02:37:55.585Z,99758.19
2022-09-16T02:40:49.988Z,99758.47
2022-09-16T02:43:17.496Z,99766.25
2022-09-16T02:45:50.300Z,99765.00
2022-09-16T02:48:41.992Z,99760.63
2022-09-16T02:51:54.059Z,99770.19
2022-09-16T02:54:30.450Z,99765.53
2022-09-16T02:56:57.714Z,99767.31
2022-09-16T02:59:25.485Z,99759.25
2022-09-16T03:01:52.721Z,99759.47
2022-09-16T03:04:21.455Z,99766.25
2022-09-16T03:06:48.754Z,99760.28
2022-09-16T03:09:24.110Z,99751.78
2022-09-16T03:12:26.334Z,99744.22
2022-09-16T03:15:20.669Z,99750.72
2022-09-16T03:17:53.250Z,99760.22
2022-09-16T03:20:47.222Z,99772.81
2022-09-16T03:23:35.618Z,99779.91
2022-09-16T03:26:39.044Z,99774.53
2022-09-16T03:29:30.061Z,99765.34
2022-09-16T03:32:27.583Z,99765.13
2022-09-16T03:35:13.748Z,99766.19
2022-09-16T03:37:42.913Z,99776.66
2022-09-16T03:40:13.670Z,99777.94
2022-09-16T03:42:44.454Z,99778.72
2022-09-16T03:45:16.498Z,99794.31
2022-09-16T03:47:44.947Z,99787.09
2022-09-16T03:50:12.502Z,99795.16
2022-09-16T03:52:39.487Z,99789.97
2022-09-16T03:55:07.651Z,99797.25
2022-09-16T03:57:34.825Z,99801.69
2022-09-16T04:00:02.049Z,99794.16
2022-09-16T04:02:39.068Z,99802.44
2022-09-16T04:05:06.493Z,99801.00
2022-09-16T04:07:33.723Z,99804.63
2022-09-16T04:10:02.002Z,99804.22
2022-09-16T04:12:29.816Z,99803.97
2022-09-16T04:14:57.175Z,99803.19
2022-09-16T04:17:24.204Z,99805.28
2022-09-16T04:19:53.122Z,99804.72
2022-09-16T04:22:20.045Z,99802.41
2022-09-16T04:24:47.005Z,99803.34
2022-09-16T04:27:13.888Z,99810.84
2022-09-16T04:29:40.846Z,99803.47
2022-09-16T04:32:07.700Z,99808.56
2022-09-16T04:34:34.606Z,99806.22
2022-09-16T04:37:01.912Z,99819.59
2022-09-16T04:39:28.980Z,99809.28
2022-09-16T04:41:56.288Z,99814.31
2022-09-16T04:44:23.184Z,99805.53
2022-09-16T04:46:50.075Z,99803.31
2022-09-16T04:49:17.103Z,99812.03
2022-09-16T04:51:44.090Z,99809.38
2022-09-16T04:54:12.424Z,99812.03
2022-09-16T04:56:39.312Z,99802.78
2022-09-16T04:59:06.400Z,99814.53
2022-09-16T05:01:37.055Z,99807.69
2022-09-16T05:04:07.548Z,99803.72
2022-09-16T05:06:37.434Z,99808.88
2022-09-16T05:09:05.067Z,99815.47
2022-09-16T05:11:34.099Z,99805.63
2022-09-16T05:14:02.503Z,99798.69
2022-09-16T05:16:30.299Z,99800.91
2022-09-16T05:18:59.164Z,99804.84
2022-09-16T05:21:28.212Z,99816.72
2022-09-16T05:23:59.602Z,99815.78
2022-09-16T05:26:29.065Z,99808.69
2022-09-16T05:28:56.158Z,99807.53
2022-09-16T05:31:28.392Z,99810.44
2022-09-16T05:33:57.712Z,99805.16
2022-09-16T05:36:25.985Z,99807.06
2022-09-16T05:39:18.311Z,99806.03
2022-09-16T05:41:40.420Z,99798.84
2022-09-16T05:44:07.432Z,99801.38
2022-09-16T05:46:34.562Z,99813.69
2022-09-16T05:49:02.040Z,99807.19
2022-09-16T05:51:29.005Z,99806.47
2022-09-16T05:53:56.036Z,99812.59
2022-09-16T05:56:29.157Z,99812.19
2022-09-16T05:58:58.239Z,99816.38
2022-09-16T06:01:27.878Z,99806.91
2022-09-16T06:03:55.270Z,99812.81
2022-09-16T06:06:34.425Z,99823.94
2022-09-16T06:09:07.130Z,99819.38
2022-09-16T06:11:38.394Z,99812.47
2022-09-16T06:14:06.302Z,99825.56
2022-09-16T06:16:33.957Z,99822.03
2022-09-16T06:19:02.969Z,99817.69
2022-09-16T06:21:30.520Z,99823.91
2022-09-16T06:23:58.389Z,99821.84
2022-09-16T06:26:26.965Z,99831.22
2022-09-16T06:28:54.738Z,99831.34
2022-09-16T06:31:25.459Z,99825.22
2022-09-16T06:33:53.406Z,99823.22
2022-09-16T06:36:32.343Z,99831.50
2022-09-16T06:38:59.691Z,99829.06
2022-09-16T06:41:26.833Z,99820.47
2022-09-16T06:43:54.002Z,99832.09
2022-09-16T06:46:23.696Z,99822.41
2022-09-16T06:48:52.711Z,99828.13
2022-09-16T06:51:24.695Z,99830.75
2022-09-16T06:53:53.160Z,99834.56
2022-09-16T06:56:21.861Z,99845.09
2022-09-16T06:58:53.193Z,99844.00
2022-09-16T07:01:22.871Z,99845.78
2022-09-16T07:03:51.873Z,99836.19
2022-09-16T07:06:20.587Z,99836.44
2022-09-16T07:08:47.574Z,99847.31
2022-09-16T07:11:20.168Z,99842.63
2022-09-16T07:13:49.223Z,99849.34
2022-09-16T07:16:19.921Z,99840.38
2022-09-16T07:18:48.499Z,99843.41
2022-09-16T07:21:20.543Z,99839.13
2022-09-16T07:23:48.857Z,99842.44
2022-09-16T07:26:22.959Z,99831.28
2022-09-16T07:28:50.591Z,99837.06
2022-09-16T07:31:20.427Z,99837.53
2022-09-16T07:33:50.418Z,99836.72
2022-09-16T07:36:30.145Z,99838.88
2022-09-16T07:38:58.687Z,99824.44
2022-09-16T07:41:31.119Z,99830.94
2022-09-16T07:43:59.530Z,99830.66
2022-09-16T07:46:28.566Z,99831.97
2022-09-16T07:48:56.318Z,99835.41
2022-09-16T07:51:25.539Z,99821.41
2022-09-16T07:54:04.779Z,99831.91
2022-09-16T07:56:36.874Z,99838.84
2022-09-16T07:59:06.758Z,99837.41
2022-09-16T08:01:36.336Z,99842.28
2022-09-16T08:04:05.855Z,99840.22
2022-09-16T08:06:33.547Z,99841.59
2022-09-16T08:09:10.495Z,99828.88
2022-09-16T08:11:49.335Z,99831.34
2022-09-16T08:14:16.235Z,99825.84
2022-09-16T08:16:43.111Z,99831.66
2022-09-16T08:19:10.209Z,99821.41
2022-09-16T08:21:37.209Z,99827.66
2022-09-16T08:24:04.218Z,99818.03
2022-09-16T08:26:31.097Z,99824.84
2022-09-16T08:29:08.459Z,99825.44
2022-09-16T08:31:36.828Z,99816.59
2022-09-16T08:34:03.978Z,99831.25
2022-09-16T08:36:33.292Z,99808.34
2022-09-16T08:39:00.193Z,99818.59
2022-09-16T08:41:32.679Z,99805.59
2022-09-16T08:44:15.352Z,99815.03
2022-09-16T08:46:55.951Z,99814.00
2022-09-16T08:49:34.969Z,99805.34
2022-09-16T08:52:10.951Z,99811.78
2022-09-16T08:54:43.477Z,99798.22
2022-09-16T08:57:16.072Z,99810.88
2022-09-16T08:59:48.441Z,99802.00
2022-09-16T09:03:01.134Z,99825.59
2022-09-16T09:05:46.833Z,99817.44
2022-09-16T09:08:41.199Z,99805.25
2022-09-16T09:11:08.014Z,99801.22
2022-09-16T09:14:03.486Z,99801.31
2022-09-16T09:16:42.424Z,99800.50
2022-09-16T09:19:09.309Z,99805.38
2022-09-16T09:22:06.891Z,99800.38
2022-09-16T09:25:15.348Z,99804.69
2022-09-16T09:28:00.789Z,99809.91
2022-09-16T09:30:28.740Z,99811.72
2022-09-16T09:33:27.747Z,99806.03
2022-09-16T09:36:32.107Z,99804.63
2022-09-16T09:39:32.706Z,99806.53
2022-09-16T09:42:13.166Z,99794.91
2022-09-16T09:45:02.431Z,99813.81
2022-09-16T09:47:47.498Z,99814.91
2022-09-16T09:50:24.265Z,99802.00
2022-09-16T09:53:12.485Z,99808.03
2022-09-16T09:55:41.836Z,99801.69
2022-09-16T09:58:23.897Z,99821.75
2022-09-16T10:00:53.303Z,99817.06
2022-09-16T10:03:20.451Z,99806.97
2022-09-16T10:05:48.635Z,99810.44
2022-09-16T10:08:25.153Z,99788.44
2022-09-16T10:10:57.997Z,99791.69
2022-09-16T10:13:26.471Z,99806.56
2022-09-16T10:16:07.224Z,99793.91
2022-09-16T10:18:34.569Z,99797.34
2022-09-16T10:21:12.994Z,99803.41
2022-09-16T10:23:39.963Z,99808.38
2022-09-16T10:26:09.880Z,99809.22
2022-09-16T10:28:36.938Z,99797.72
2022-09-16T10:31:07.287Z,99813.97
2022-09-16T10:33:52.478Z,99804.06
2022-09-16T10:36:22.366Z,99802.44
2022-09-16T10:38:59.603Z,99806.28
2022-09-16T10:41:50.316Z,99794.97
2022-09-16T10:44:26.202Z,99801.13
2022-09-16T10:46:57.396Z,99796.31
2022-09-16T10:49:39.302Z,99788.63
2022-09-16T10:52:30.618Z,99784.41
2022-09-16T10:54:57.877Z,99793.31
2022-09-16T10:57:30.598Z,99798.94
2022-09-16T11:00:13.838Z,99808.13
2022-09-16T11:03:17.883Z,99804.91
2022-09-16T11:06:07.501Z,99803.59
2022-09-16T11:09:05.557Z,99797.03
2022-09-16T11:11:51.982Z,99796.06
2022-09-16T11:14:51.903Z,99798.78
2022-09-16T11:17:45.266Z,99794.41
2022-09-16T11:20:36.576Z,99783.53
2022-09-16T11:23:34.068Z,99805.50
2022-09-16T11:26:19.558Z,99803.94
2022-09-16T11:29:00.270Z,99784.69
2022-09-16T11:31:57.272Z,99789.44
2022-09-16T11:34:41.027Z,99790.22
2022-09-16T11:37:07.858Z,99778.47
2022-09-16T11:39:53.173Z,99777.44
2022-09-16T11:42:35.175Z,99778.34
2022-09-16T11:45:04.862Z,99768.16
2022-09-16T11:47:57.741Z,99766.69
2022-09-16T11:50:58.508Z,99762.31
2022-09-16T11:53:34.988Z,99753.34
2022-09-16T11:56:37.529Z,99750.28
2022-09-16T11:59:30.351Z,99766.28
2022-09-16T12:02:18.056Z,99735.22
2022-09-16T12:04:55.204Z,99738.19
2022-09-16T12:07:47.361Z,99732.19
2022-09-16T12:10:26.029Z,99752.81
2022-09-16T12:13:05.071Z,99744.44
2022-09-16T12:15:39.787Z,99752.72
2022-09-16T12:18:21.206Z,99741.06
2022-09-16T12:20:58.375Z,99738.47
2022-09-16T12:23:30.125Z,99736.97
2022-09-16T12:26:18.486Z,99732.50
2022-09-16T12:29:04.134Z,99731.44
2022-09-16T12:31:34.370Z,99742.84
2022-09-16T12:34:22.409Z,99736.19
2022-09-16T12:37:03.745Z,99719.94
2022-09-16T12:39:30.630Z,99721.59
2022-09-16T12:42:18.807Z,99721.34
2022-09-16T12:44:54.808Z,99720.97
2022-09-16T12:48:00.078Z,99721.16
2022-09-16T12:50:50.837Z,99714.69
2022-09-16T12:53:35.989Z,99708.47
2022-09-16T12:56:23.731Z,99710.09
2022-09-16T12:59:21.159Z,99711.38
2022-09-16T13:01:55.632Z,99694.09
2022-09-16T13:04:33.885Z,99698.75
2022-09-16T13:07:02.170Z,99695.13
2022-09-16T13:09:39.681Z,99693.97
2022-09-16T13:12:44.957Z,99698.47
2022-09-16T13:15:42.212Z,99689.06
2022-09-16T13:18:18.064Z,99690.94
2022-09-16T13:20:58.074Z,99693.09
2022-09-16T13:23:34.018Z,99691.75
2022-09-16T13:26:07.462Z,99694.59
2022-09-16T13:28:37.063Z,99670.22
2022-09-16T13:31:16.794Z,99679.16
2022-09-16T13:33:58.908Z,99670.84
2022-09-16T13:36:25.992Z,99699.09
2022-09-16T13:38:52.771Z,99695.25
2022-09-16T13:41:44.203Z,99680.22
2022-09-16T13:44:39.348Z,99686.91
2022-09-16T13:47:14.811Z,99691.78
2022-09-16T13:49:57.037Z,99685.53
2022-09-16T13:52:36.061Z,99683.88
2022-09-16T13:55:10.548Z,99686.66
2022-09-16T13:58:15.525Z,99693.00
2022-09-16T14:01:13.253Z,99691.41
2022-09-16T14:03:43.549Z,99685.19
2022-09-16T14:06:15.846Z,99685.31
2022-09-16T14:08:54.681Z,99688.63
2022-09-16T14:11:56.622Z,99683.34
2022-09-16T14:17:24.442Z,99688.16
2022-09-16T14:20:00.016Z,99691.22
2022-09-16T14:22:27.716Z,99701.75
2022-09-16T14:25:05.987Z,99691.75
2022-09-16T14:27:40.070Z,99684.25
2022-09-16T14:30:27.453Z,99673.13
2022-09-16T14:32:54.366Z,99674.84
2022-09-16T14:35:27.044Z,99673.06
2022-09-16T14:38:02.347Z,99684.91
2022-09-16T14:40:30.011Z,99694.47
2022-09-16T14:43:06.183Z,99683.13
2022-09-16T14:45:36.181Z,99689.22
2022-09-16T14:48:08.672Z,99692.91
2022-09-16T14:50:42.807Z,99694.31
2022-09-16T14:53:35.456Z,99701.47
2022-09-16T14:56:05.178Z,99708.31
2022-09-16T14:58:33.970Z,99719.97
2022-09-16T15:01:09.071Z,99738.59
2022-09-16T15:04:02.277Z,99759.53
2022-09-16T15:06:36.937Z,99796.84
2022-09-16T15:09:14.174Z,99833.66
2022-09-16T15:11:54.345Z,99870.66
2022-09-16T15:14:21.927Z,99909.09
2022-09-16T15:16:53.055Z,99910.97
2022-09-16T15:19:23.924Z,99928.16
2022-09-16T15:21:51.199Z,99942.75
2022-09-16T15:24:26.277Z,99903.19
2022-09-16T15:26:54.091Z,99883.91
2022-09-16T15:29:23.871Z,99845.72
2022-09-16T15:31:51.583Z,99862.63
2022-09-16T15:34:21.900Z,99864.47
2022-09-16T15:36:57.116Z,99877.03
2022-09-16T15:39:29.894Z,99894.25
2022-09-16T15:42:26.773Z,99894.72
2022-09-16T15:45:04.404Z,99888.38
2022-09-16T15:47:34.885Z,99882.63
2022-09-16T15:50:10.442Z,99882.09
2022-09-16T15:52:56.676Z,99885.19
2022-09-16T15:55:58.025Z,99895.47
2022-09-16T15:58:34.618Z,99882.53
2022-09-16T16:01:06.056Z,99871.06
2022-09-16T16:03:45.689Z,99862.00
2022-09-16T16:06:13.726Z,99871.47
2022-09-16T16:08:47.815Z,99879.75
2022-09-16T16:11:18.027Z,99870.97
2022-09-16T16:13:46.316Z,99869.03
2022-09-16T16:16:16.166Z,99866.81
2022-09-16T16:18:46.420Z,99857.47
2022-09-16T16:21:16.826Z,99856.03
2022-09-16T16:23:43.915Z,99862.03
2022-09-16T16:26:11.771Z,99868.19
2022-09-16T16:28:38.956Z,99867.16
2022-09-16T16:31:11.094Z,99864.81
2022-09-16T16:33:42.552Z,99857.59
2022-09-16T16:36:15.581Z,99861.97
2022-09-16T16:38:42.683Z,99866.38
2022-09-16T16:41:12.410Z,99878.84
2022-09-16T16:43:40.199Z,99875.56
2022-09-16T16:46:07.303Z,99858.66
2022-09-16T16:48:34.376Z,99857.16
2022-09-16T16:51:13.034Z,99854.75
2022-09-16T16:53:40.184Z,99853.94
2022-09-16T16:56:15.080Z,99877.34
2022-09-16T16:58:45.596Z,99901.09
2022-09-16T17:01:17.991Z,99922.19
2022-09-16T17:03:47.716Z,99907.34
2022-09-16T17:06:15.092Z,99892.00
2022-09-16T17:08:42.179Z,99862.84
2022-09-16T17:11:15.075Z,99862.66
2022-09-16T17:13:44.855Z,99856.63
2022-09-16T17:16:14.306Z,99853.59
2022-09-16T17:18:42.015Z,99841.81
2022-09-16T17:21:15.638Z,99846.00
2022-09-16T17:23:43.432Z,99849.41
2022-09-16T17:26:11.355Z,99849.84
2022-09-16T17:28:39.818Z,99865.88
2022-09-16T17:31:15.143Z,99867.06
2022-09-16T17:33:43.330Z,99850.91
2022-09-16T17:36:13.011Z,99852.19
2022-09-16T17:38:40.137Z,99848.88
2022-09-16T17:41:09.735Z,99840.22
2022-09-16T17:43:38.880Z,99832.34
2022-09-16T17:46:08.104Z,99841.00
2022-09-16T17:48:37.579Z,99844.25
2022-09-16T17:51:05.333Z,99859.22
2022-09-16T17:53:32.450Z,99844.88
2022-09-16T17:56:08.095Z,99823.81
2022-09-16T17:58:36.697Z,99813.88
2022-09-16T18:01:12.070Z,99789.16
2022-09-16T18:03:40.497Z,99790.25
2022-09-16T18:06:23.226Z,99786.56
2022-09-16T18:08:50.992Z,99801.97
2022-09-16T18:11:19.051Z,99794.06
2022-09-16T18:13:46.736Z,99796.25
2022-09-16T18:16:19.113Z,99802.59
2022-09-16T18:18:49.630Z,99789.88
2022-09-16T18:21:18.431Z,99780.84
2022-09-16T18:23:46.798Z,99780.34
2022-09-16T18:26:15.160Z,99766.16
2022-09-16T18:29:07.923Z,99770.44
2022-09-16T18:31:33.306Z,99767.19
2022-09-16T18:34:00.226Z,99784.03
2022-09-16T18:36:30.079Z,99800.53
2022-09-16T18:38:58.493Z,99785.13
2022-09-16T18:41:31.141Z,99777.63
2022-09-16T18:44:00.775Z,99790.34
2022-09-16T18:46:32.847Z,99810.97
2022-09-16T18:49:00.610Z,99782.13
2022-09-16T18:51:32.472Z,99782.00
2022-09-16T18:54:02.364Z,99766.75
2022-09-16T18:56:34.990Z,99767.63
2022-09-16T18:59:21.129Z,99777.00
2022-09-16T19:01:49.616Z,99757.25
2022-09-16T19:04:19.354Z,99777.63
2022-09-16T19:06:50.236Z,99780.19
2022-09-16T19:09:20.960Z,99764.88
2022-09-16T19:11:48.502Z,99768.06
2022-09-16T19:14:16.038Z,99771.50
2022-09-16T19:16:44.917Z,99770.91
2022-09-16T19:19:14.769Z,99775.09
2022-09-16T19:21:43.039Z,99773.69
2022-09-16T19:24:15.574Z,99783.31
2022-09-16T19:26:44.196Z,99784.66
2022-09-16T19:29:12.179Z,99782.72
2022-09-16T19:31:42.604Z,99790.50
2022-09-16T19:34:10.484Z,99788.38
2022-09-16T19:36:38.614Z,99772.13
2022-09-16T19:39:07.262Z,99764.03
2022-09-16T19:41:36.211Z,99766.97
2022-09-16T19:44:05.652Z,99790.41
2022-09-16T19:46:37.729Z,99809.03
2022-09-16T19:49:06.428Z,99802.44
2022-09-16T19:51:33.446Z,99792.84
2022-09-16T19:54:01.250Z,99789.97
2022-09-16T19:56:32.722Z,99798.44
2022-09-16T19:59:01.647Z,99806.47
2022-09-16T20:01:33.592Z,99816.72
2022-09-16T20:04:02.478Z,99818.47
2022-09-16T20:06:33.168Z,99815.13
2022-09-16T20:09:01.891Z,99815.56
2022-09-16T20:11:34.173Z,99815.53
2022-09-16T20:14:11.501Z,99810.56
2022-09-16T20:16:39.943Z,99802.78
2022-09-16T20:19:10.567Z,99812.50
2022-09-16T20:21:38.031Z,99806.09
2022-09-16T20:24:07.942Z,99806.22
2022-09-16T20:26:36.136Z,99810.97
2022-09-16T20:29:04.297Z,99814.94
2022-09-16T20:31:36.469Z,99797.56
2022-09-16T20:34:04.923Z,99803.50
2022-09-16T20:36:35.800Z,99809.25
2022-09-16T20:39:03.873Z,99809.47
2022-09-16T20:41:33.090Z,99808.97
2022-09-16T20:44:00.557Z,99809.53
2022-09-16T20:46:31.659Z,99805.59
2022-09-16T20:49:00.753Z,99815.69
2022-09-16T20:51:33.556Z,99813.13
2022-09-16T20:54:07.482Z,99825.72
2022-09-16T20:56:38.480Z,99833.22
2022-09-16T20:59:10.133Z,99835.38
2022-09-16T21:01:38.676Z,99830.19
2022-09-16T21:04:07.825Z,99829.28
2022-09-16T21:06:36.287Z,99826.53
2022-09-16T21:09:06.655Z,99815.03
2022-09-16T21:11:33.988Z,99807.09
2022-09-16T21:14:06.656Z,99822.97
2022-09-16T21:16:36.240Z,99826.16
2022-09-16T21:19:05.061Z,99820.16
2022-09-16T21:21:32.268Z,99819.09
2022-09-16T21:24:01.483Z,99811.38
2022-09-16T21:26:31.299Z,99815.97
2022-09-16T21:29:00.609Z,99816.81
2022-09-16T21:31:29.326Z,99812.22
2022-09-16T21:33:57.542Z,99818.47
2022-09-16T21:36:27.933Z,99815.66
2022-09-16T21:38:55.339Z,99815.88
2022-09-16T21:41:23.410Z,99814.81
2022-09-16T21:43:55.557Z,99826.88
2022-09-16T21:46:33.841Z,99830.97
2022-09-16T21:49:02.569Z,99830.63
2022-09-16T21:51:35.365Z,99833.69
2022-09-16T21:54:04.499Z,99816.56
2022-09-16T21:56:32.304Z,99809.69
2022-09-16T21:59:00.347Z,99815.34
2022-09-16T22:01:30.376Z,99805.34
2022-09-16T22:03:59.708Z,99799.78
2022-09-16T22:06:27.400Z,99809.13
2022-09-16T22:09:01.822Z,99798.41
2022-09-16T22:11:31.465Z,99793.66
2022-09-16T22:14:00.800Z,99790.97
2022-09-16T22:16:30.134Z,99772.75
2022-09-16T22:19:00.719Z,99786.88
2022-09-16T22:21:30.326Z,99777.75
2022-09-16T22:23:59.381Z,99782.94
2022-09-16T22:26:27.304Z,99777.25
2022-09-16T22:28:54.862Z,99784.00
2022-09-16T22:31:33.053Z,99779.78
2022-09-16T22:34:01.787Z,99775.84
2022-09-16T22:36:33.917Z,99776.78
2022-09-16T22:39:08.228Z,99775.47
2022-09-16T22:41:35.175Z,99771.84
2022-09-16T22:44:02.698Z,99771.66
2022-09-16T22:46:35.673Z,99770.78
2022-09-16T22:49:02.624Z,99769.84
2022-09-16T22:51:29.779Z,99770.81
2022-09-16T22:53:56.747Z,99767.16
2022-09-16T22:56:28.480Z,99769.50
2022-09-16T22:58:56.938Z,99766.28
2022-09-16T23:01:29.646Z,99765.06
2022-09-16T23:03:58.370Z,99756.75
2022-09-16T23:06:27.221Z,99753.72
2022-09-16T23:08:54.185Z,99747.41
2022-09-16T23:11:23.927Z,99744.56
2022-09-16T23:13:52.981Z,99739.66
2022-09-16T23:16:23.296Z,99732.75
2022-09-16T23:18:51.125Z,99734.81
2022-09-16T23:21:20.422Z,99733.31
2022-09-16T23:23:50.541Z,99729.72
2022-09-16T23:26:21.705Z,99733.66
2022-09-16T23:28:53.721Z,99722.00
2022-09-16T23:31:22.934Z,99721.00
2022-09-16T23:33:50.574Z,99722.72
2022-09-16T23:36:18.306Z,99723.34
2022-09-16T23:38:48.778Z,99717.25
2022-09-16T23:41:21.521Z,99724.72
2022-09-16T23:43:49.966Z,99725.69
2022-09-16T23:46:20.303Z,99717.31
2022-09-16T23:48:48.539Z,99709.22
2022-09-16T23:51:15.421Z,99705.44
2022-09-16T23:53:42.588Z,99713.16
2022-09-16T23:56:12.138Z,99716.84
2022-09-16T23:58:39.465Z,99712.56
